sensor_id;sensor_type;location;lat;lon;timestamp;P1;durP1;ratioP1;P2;durP2;ratioP2
27796;SDS011;15177;50.844;4.412;2023-02-26T00:00:06;15.17;;;4.17;;
27796;SDS011;15177;50.844;4.412;2023-02-26T00:02:38;21.37;;;4.03;;
27796;SDS011;15177;50.844;4.412;2023-02-26T00:05:10;13.73;;;3.90;;
27796;SDS011;15177;50.844;4.412;2023-02-26T00:07:37;22.20;;;5.30;;
27796;SDS011;15177;50.844;4.412;2023-02-26T00:10:04;14.57;;;4.57;;
27796;SDS011;15177;50.844;4.412;2023-02-26T00:12:31;12.33;;;4.40;;
27796;SDS011;15177;50.844;4.412;2023-02-26T00:14:59;15.10;;;3.87;;
27796;SDS011;15177;50.844;4.412;2023-02-26T00:17:31;13.30;;;3.83;;
27796;SDS011;15177;50.844;4.412;2023-02-26T00:20:13;13.33;;;4.30;;
27796;SDS011;15177;50.844;4.412;2023-02-26T00:22:41;14.13;;;3.60;;
27796;SDS011;15177;50.844;4.412;2023-02-26T00:25:08;11.37;;;3.50;;
27796;SDS011;15177;50.844;4.412;2023-02-26T00:27:34;18.53;;;4.07;;
27796;SDS011;15177;50.844;4.412;2023-02-26T00:30:00;13.37;;;3.80;;
27796;SDS011;15177;50.844;4.412;2023-02-26T00:32:28;18.07;;;4.90;;
27796;SDS011;15177;50.844;4.412;2023-02-26T00:34:55;11.43;;;3.50;;
27796;SDS011;15177;50.844;4.412;2023-02-26T00:37:35;14.00;;;3.90;;
27796;SDS011;15177;50.844;4.412;2023-02-26T00:42:33;13.93;;;4.20;;
27796;SDS011;15177;50.844;4.412;2023-02-26T00:45:01;14.87;;;3.67;;
27796;SDS011;15177;50.844;4.412;2023-02-26T00:50:13;14.63;;;4.30;;
27796;SDS011;15177;50.844;4.412;2023-02-26T00:55:25;10.90;;;3.57;;
27796;SDS011;15177;50.844;4.412;2023-02-26T00:57:52;18.30;;;3.97;;
27796;SDS011;15177;50.844;4.412;2023-02-26T01:00:18;14.33;;;4.40;;
27796;SDS011;15177;50.844;4.412;2023-02-26T01:02:44;14.33;;;4.40;;
27796;SDS011;15177;50.844;4.412;2023-02-26T01:05:10;17.83;;;4.60;;
27796;SDS011;15177;50.844;4.412;2023-02-26T01:07:39;16.80;;;4.50;;
27796;SDS011;15177;50.844;4.412;2023-02-26T01:10:25;15.43;;;4.57;;
27796;SDS011;15177;50.844;4.412;2023-02-26T01:12:51;14.93;;;3.73;;
27796;SDS011;15177;50.844;4.412;2023-02-26T01:15:17;16.13;;;4.30;;
27796;SDS011;15177;50.844;4.412;2023-02-26T01:17:54;17.47;;;5.23;;
27796;SDS011;15177;50.844;4.412;2023-02-26T01:20:21;13.87;;;4.37;;
27796;SDS011;15177;50.844;4.412;2023-02-26T01:25:26;12.13;;;4.37;;
27796;SDS011;15177;50.844;4.412;2023-02-26T01:28:11;17.47;;;5.07;;
27796;SDS011;15177;50.844;4.412;2023-02-26T01:30:37;16.03;;;4.50;;
27796;SDS011;15177;50.844;4.412;2023-02-26T01:35:43;16.53;;;4.67;;
27796;SDS011;15177;50.844;4.412;2023-02-26T01:47:14;25.63;;;5.30;;
27796;SDS011;15177;50.844;4.412;2023-02-26T01:49:49;14.83;;;5.47;;
27796;SDS011;15177;50.844;4.412;2023-02-26T01:53:09;12.77;;;4.43;;
27796;SDS011;15177;50.844;4.412;2023-02-26T01:55:14;15.80;;;4.60;;
27796;SDS011;15177;50.844;4.412;2023-02-26T01:57:43;29.40;;;5.50;;
27796;SDS011;15177;50.844;4.412;2023-02-26T02:00:10;11.00;;;4.57;;
27796;SDS011;15177;50.844;4.412;2023-02-26T02:02:37;9.17;;;3.83;;
27796;SDS011;15177;50.844;4.412;2023-02-26T02:05:06;18.60;;;5.97;;
27796;SDS011;15177;50.844;4.412;2023-02-26T02:08:09;12.97;;;4.70;;
27796;SDS011;15177;50.844;4.412;2023-02-26T02:10:39;12.70;;;4.47;;
27796;SDS011;15177;50.844;4.412;2023-02-26T02:15:47;19.73;;;5.00;;
27796;SDS011;15177;50.844;4.412;2023-02-26T02:18:36;10.80;;;4.50;;
27796;SDS011;15177;50.844;4.412;2023-02-26T02:29:20;9.23;;;3.50;;
27796;SDS011;15177;50.844;4.412;2023-02-26T02:31:49;10.70;;;4.30;;
27796;SDS011;15177;50.844;4.412;2023-02-26T02:34:26;9.33;;;3.17;;
27796;SDS011;15177;50.844;4.412;2023-02-26T02:39:50;17.20;;;3.53;;
27796;SDS011;15177;50.844;4.412;2023-02-26T02:42:27;17.60;;;3.70;;
27796;SDS011;15177;50.844;4.412;2023-02-26T02:44:59;10.40;;;2.57;;
27796;SDS011;15177;50.844;4.412;2023-02-26T02:47:29;8.63;;;3.37;;
27796;SDS011;15177;50.844;4.412;2023-02-26T02:50:04;9.80;;;2.70;;
27796;SDS011;15177;50.844;4.412;2023-02-26T02:55:20;10.17;;;3.23;;
27796;SDS011;15177;50.844;4.412;2023-02-26T02:58:11;14.80;;;2.67;;
27796;SDS011;15177;50.844;4.412;2023-02-26T03:00:43;7.47;;;2.80;;
27796;SDS011;15177;50.844;4.412;2023-02-26T03:05:52;8.33;;;2.50;;
27796;SDS011;15177;50.844;4.412;2023-02-26T03:08:23;16.10;;;3.17;;
27796;SDS011;15177;50.844;4.412;2023-02-26T03:10:52;10.33;;;2.87;;
27796;SDS011;15177;50.844;4.412;2023-02-26T03:13:21;12.63;;;3.13;;
27796;SDS011;15177;50.844;4.412;2023-02-26T03:21:33;14.27;;;3.33;;
27796;SDS011;15177;50.844;4.412;2023-02-26T03:24:17;9.33;;;2.33;;
27796;SDS011;15177;50.844;4.412;2023-02-26T03:26:53;10.93;;;2.70;;
27796;SDS011;15177;50.844;4.412;2023-02-26T03:32:08;12.83;;;2.83;;
27796;SDS011;15177;50.844;4.412;2023-02-26T03:34:49;8.30;;;2.30;;
27796;SDS011;15177;50.844;4.412;2023-02-26T03:37:33;13.33;;;2.60;;
27796;SDS011;15177;50.844;4.412;2023-02-26T03:40:05;17.20;;;3.03;;
27796;SDS011;15177;50.844;4.412;2023-02-26T03:42:37;8.77;;;2.70;;
27796;SDS011;15177;50.844;4.412;2023-02-26T03:45:25;5.57;;;2.50;;
27796;SDS011;15177;50.844;4.412;2023-02-26T03:47:54;12.17;;;2.93;;
27796;SDS011;15177;50.844;4.412;2023-02-26T03:50:34;5.13;;;1.93;;
27796;SDS011;15177;50.844;4.412;2023-02-26T03:53:14;10.60;;;2.37;;
27796;SDS011;15177;50.844;4.412;2023-02-26T03:58:59;9.63;;;2.27;;
27796;SDS011;15177;50.844;4.412;2023-02-26T04:01:35;4.93;;;2.27;;
27796;SDS011;15177;50.844;4.412;2023-02-26T04:04:27;6.27;;;2.47;;
27796;SDS011;15177;50.844;4.412;2023-02-26T04:06:59;4.77;;;2.03;;
27796;SDS011;15177;50.844;4.412;2023-02-26T04:09:26;9.63;;;2.67;;
27796;SDS011;15177;50.844;4.412;2023-02-26T04:11:54;11.83;;;2.03;;
27796;SDS011;15177;50.844;4.412;2023-02-26T04:14:23;8.90;;;2.73;;
27796;SDS011;15177;50.844;4.412;2023-02-26T04:16:50;7.33;;;2.07;;
27796;SDS011;15177;50.844;4.412;2023-02-26T04:19:16;7.43;;;2.30;;
27796;SDS011;15177;50.844;4.412;2023-02-26T04:21:43;6.47;;;2.37;;
27796;SDS011;15177;50.844;4.412;2023-02-26T04:24:09;9.73;;;2.53;;
27796;SDS011;15177;50.844;4.412;2023-02-26T04:26:35;7.17;;;2.43;;
27796;SDS011;15177;50.844;4.412;2023-02-26T04:29:02;11.17;;;2.83;;
27796;SDS011;15177;50.844;4.412;2023-02-26T04:31:28;7.17;;;2.07;;
27796;SDS011;15177;50.844;4.412;2023-02-26T04:33:53;6.90;;;2.60;;
27796;SDS011;15177;50.844;4.412;2023-02-26T04:36:19;9.17;;;2.43;;
27796;SDS011;15177;50.844;4.412;2023-02-26T04:38:46;4.37;;;2.10;;
27796;SDS011;15177;50.844;4.412;2023-02-26T04:41:12;4.70;;;1.90;;
27796;SDS011;15177;50.844;4.412;2023-02-26T04:43:38;11.57;;;2.93;;
27796;SDS011;15177;50.844;4.412;2023-02-26T04:46:03;7.80;;;2.93;;
27796;SDS011;15177;50.844;4.412;2023-02-26T04:48:30;7.97;;;2.30;;
27796;SDS011;15177;50.844;4.412;2023-02-26T04:50:56;6.90;;;2.00;;
27796;SDS011;15177;50.844;4.412;2023-02-26T04:53:21;4.30;;;1.97;;
27796;SDS011;15177;50.844;4.412;2023-02-26T04:55:47;13.83;;;5.53;;
27796;SDS011;15177;50.844;4.412;2023-02-26T04:58:13;9.23;;;2.20;;
27796;SDS011;15177;50.844;4.412;2023-02-26T05:00:40;10.20;;;2.33;;
27796;SDS011;15177;50.844;4.412;2023-02-26T05:03:06;9.30;;;2.57;;
27796;SDS011;15177;50.844;4.412;2023-02-26T05:05:34;11.10;;;2.23;;
27796;SDS011;15177;50.844;4.412;2023-02-26T05:08:00;16.57;;;2.53;;
27796;SDS011;15177;50.844;4.412;2023-02-26T05:10:26;12.20;;;2.53;;
27796;SDS011;15177;50.844;4.412;2023-02-26T05:12:52;9.17;;;2.63;;
27796;SDS011;15177;50.844;4.412;2023-02-26T05:15:18;8.90;;;3.03;;
27796;SDS011;15177;50.844;4.412;2023-02-26T05:17:44;7.90;;;2.03;;
27796;SDS011;15177;50.844;4.412;2023-02-26T05:20:09;12.03;;;2.70;;
27796;SDS011;15177;50.844;4.412;2023-02-26T05:22:37;7.77;;;2.33;;
27796;SDS011;15177;50.844;4.412;2023-02-26T05:25:04;8.27;;;2.23;;
27796;SDS011;15177;50.844;4.412;2023-02-26T05:27:31;12.60;;;2.43;;
27796;SDS011;15177;50.844;4.412;2023-02-26T05:29:58;13.30;;;2.30;;
27796;SDS011;15177;50.844;4.412;2023-02-26T05:32:25;8.57;;;2.50;;
27796;SDS011;15177;50.844;4.412;2023-02-26T05:34:52;8.00;;;2.30;;
27796;SDS011;15177;50.844;4.412;2023-02-26T05:37:18;7.73;;;2.77;;
27796;SDS011;15177;50.844;4.412;2023-02-26T05:39:43;10.13;;;2.57;;
27796;SDS011;15177;50.844;4.412;2023-02-26T05:42:09;7.73;;;1.90;;
27796;SDS011;15177;50.844;4.412;2023-02-26T05:44:35;4.90;;;1.53;;
27796;SDS011;15177;50.844;4.412;2023-02-26T05:47:01;6.57;;;2.00;;
27796;SDS011;15177;50.844;4.412;2023-02-26T05:49:28;6.53;;;2.17;;
27796;SDS011;15177;50.844;4.412;2023-02-26T05:51:54;11.53;;;3.03;;
27796;SDS011;15177;50.844;4.412;2023-02-26T05:54:21;10.37;;;2.23;;
27796;SDS011;15177;50.844;4.412;2023-02-26T05:56:48;9.53;;;2.00;;
27796;SDS011;15177;50.844;4.412;2023-02-26T05:59:14;12.87;;;2.77;;
27796;SDS011;15177;50.844;4.412;2023-02-26T06:01:40;13.87;;;2.70;;
27796;SDS011;15177;50.844;4.412;2023-02-26T06:04:08;8.40;;;2.10;;
27796;SDS011;15177;50.844;4.412;2023-02-26T06:06:33;10.43;;;2.43;;
27796;SDS011;15177;50.844;4.412;2023-02-26T06:08:59;9.30;;;2.17;;
27796;SDS011;15177;50.844;4.412;2023-02-26T06:11:27;9.47;;;3.90;;
27796;SDS011;15177;50.844;4.412;2023-02-26T06:13:54;17.27;;;2.23;;
27796;SDS011;15177;50.844;4.412;2023-02-26T06:16:20;9.97;;;2.03;;
27796;SDS011;15177;50.844;4.412;2023-02-26T06:18:46;14.03;;;2.33;;
27796;SDS011;15177;50.844;4.412;2023-02-26T06:21:14;7.17;;;1.87;;
27796;SDS011;15177;50.844;4.412;2023-02-26T06:23:41;9.83;;;2.13;;
27796;SDS011;15177;50.844;4.412;2023-02-26T06:26:06;7.37;;;2.47;;
27796;SDS011;15177;50.844;4.412;2023-02-26T06:28:32;5.50;;;1.50;;
27796;SDS011;15177;50.844;4.412;2023-02-26T06:30:58;8.83;;;2.13;;
27796;SDS011;15177;50.844;4.412;2023-02-26T06:33:23;11.00;;;2.43;;
27796;SDS011;15177;50.844;4.412;2023-02-26T06:35:51;7.17;;;2.43;;
27796;SDS011;15177;50.844;4.412;2023-02-26T06:38:18;11.23;;;2.70;;
27796;SDS011;15177;50.844;4.412;2023-02-26T06:40:46;7.80;;;2.33;;
27796;SDS011;15177;50.844;4.412;2023-02-26T06:43:12;8.93;;;2.10;;
27796;SDS011;15177;50.844;4.412;2023-02-26T06:45:39;5.33;;;1.90;;
27796;SDS011;15177;50.844;4.412;2023-02-26T06:48:05;5.77;;;2.17;;
27796;SDS011;15177;50.844;4.412;2023-02-26T06:50:30;16.07;;;1.90;;
27796;SDS011;15177;50.844;4.412;2023-02-26T06:52:56;4.83;;;2.03;;
27796;SDS011;15177;50.844;4.412;2023-02-26T06:55:23;7.70;;;2.20;;
27796;SDS011;15177;50.844;4.412;2023-02-26T06:57:55;6.43;;;1.93;;
27796;SDS011;15177;50.844;4.412;2023-02-26T07:00:22;6.37;;;1.90;;
27796;SDS011;15177;50.844;4.412;2023-02-26T07:02:49;6.97;;;1.47;;
27796;SDS011;15177;50.844;4.412;2023-02-26T07:05:15;10.07;;;2.27;;
27796;SDS011;15177;50.844;4.412;2023-02-26T07:07:41;7.20;;;2.03;;
27796;SDS011;15177;50.844;4.412;2023-02-26T07:10:07;8.30;;;1.80;;
27796;SDS011;15177;50.844;4.412;2023-02-26T07:12:34;12.97;;;1.87;;
27796;SDS011;15177;50.844;4.412;2023-02-26T07:15:02;5.10;;;2.07;;
27796;SDS011;15177;50.844;4.412;2023-02-26T07:17:29;8.43;;;2.40;;
27796;SDS011;15177;50.844;4.412;2023-02-26T07:19:55;12.33;;;2.20;;
27796;SDS011;15177;50.844;4.412;2023-02-26T07:22:20;5.03;;;1.87;;
27796;SDS011;15177;50.844;4.412;2023-02-26T07:24:46;12.33;;;2.30;;
27796;SDS011;15177;50.844;4.412;2023-02-26T07:27:12;10.60;;;1.90;;
27796;SDS011;15177;50.844;4.412;2023-02-26T07:29:37;13.47;;;2.17;;
27796;SDS011;15177;50.844;4.412;2023-02-26T07:32:03;7.77;;;1.70;;
27796;SDS011;15177;50.844;4.412;2023-02-26T07:34:30;6.47;;;1.93;;
27796;SDS011;15177;50.844;4.412;2023-02-26T07:36:59;10.53;;;2.90;;
27796;SDS011;15177;50.844;4.412;2023-02-26T07:39:25;6.87;;;2.63;;
27796;SDS011;15177;50.844;4.412;2023-02-26T07:41:51;7.93;;;1.87;;
27796;SDS011;15177;50.844;4.412;2023-02-26T07:44:18;12.23;;;2.37;;
27796;SDS011;15177;50.844;4.412;2023-02-26T07:46:44;10.30;;;2.40;;
27796;SDS011;15177;50.844;4.412;2023-02-26T07:49:10;4.13;;;1.67;;
27796;SDS011;15177;50.844;4.412;2023-02-26T07:51:35;9.20;;;1.90;;
27796;SDS011;15177;50.844;4.412;2023-02-26T07:54:01;8.10;;;2.47;;
27796;SDS011;15177;50.844;4.412;2023-02-26T07:56:28;10.10;;;2.17;;
27796;SDS011;15177;50.844;4.412;2023-02-26T07:58:54;7.37;;;2.40;;
27796;SDS011;15177;50.844;4.412;2023-02-26T08:01:20;4.13;;;1.80;;
27796;SDS011;15177;50.844;4.412;2023-02-26T08:03:46;8.07;;;2.67;;
27796;SDS011;15177;50.844;4.412;2023-02-26T08:06:12;10.83;;;1.80;;
27796;SDS011;15177;50.844;4.412;2023-02-26T08:08:38;5.87;;;1.97;;
27796;SDS011;15177;50.844;4.412;2023-02-26T08:11:04;5.10;;;2.00;;
27796;SDS011;15177;50.844;4.412;2023-02-26T08:13:29;4.03;;;1.67;;
27796;SDS011;15177;50.844;4.412;2023-02-26T08:16:01;8.90;;;1.70;;
27796;SDS011;15177;50.844;4.412;2023-02-26T08:18:27;8.50;;;1.93;;
27796;SDS011;15177;50.844;4.412;2023-02-26T08:20:53;9.37;;;2.60;;
27796;SDS011;15177;50.844;4.412;2023-02-26T08:23:19;7.83;;;2.30;;
27796;SDS011;15177;50.844;4.412;2023-02-26T08:25:44;3.00;;;1.53;;
27796;SDS011;15177;50.844;4.412;2023-02-26T08:28:10;4.13;;;1.90;;
27796;SDS011;15177;50.844;4.412;2023-02-26T08:30:37;4.80;;;1.53;;
27796;SDS011;15177;50.844;4.412;2023-02-26T08:33:04;10.57;;;2.67;;
27796;SDS011;15177;50.844;4.412;2023-02-26T08:35:30;7.03;;;1.80;;
27796;SDS011;15177;50.844;4.412;2023-02-26T08:37:55;4.50;;;2.17;;
27796;SDS011;15177;50.844;4.412;2023-02-26T08:40:24;5.47;;;2.33;;
27796;SDS011;15177;50.844;4.412;2023-02-26T08:42:50;5.73;;;1.80;;
27796;SDS011;15177;50.844;4.412;2023-02-26T08:45:16;8.03;;;3.13;;
27796;SDS011;15177;50.844;4.412;2023-02-26T08:47:43;9.67;;;2.50;;
27796;SDS011;15177;50.844;4.412;2023-02-26T08:50:11;6.07;;;1.87;;
27796;SDS011;15177;50.844;4.412;2023-02-26T08:52:36;4.37;;;1.87;;
27796;SDS011;15177;50.844;4.412;2023-02-26T08:55:02;3.97;;;1.70;;
27796;SDS011;15177;50.844;4.412;2023-02-26T08:57:28;7.03;;;2.33;;
27796;SDS011;15177;50.844;4.412;2023-02-26T08:59:54;8.43;;;2.57;;
27796;SDS011;15177;50.844;4.412;2023-02-26T09:02:20;9.10;;;1.93;;
27796;SDS011;15177;50.844;4.412;2023-02-26T09:04:45;10.43;;;2.03;;
27796;SDS011;15177;50.844;4.412;2023-02-26T09:07:11;8.37;;;2.10;;
27796;SDS011;15177;50.844;4.412;2023-02-26T09:09:37;7.33;;;1.53;;
27796;SDS011;15177;50.844;4.412;2023-02-26T09:12:04;5.77;;;1.57;;
27796;SDS011;15177;50.844;4.412;2023-02-26T09:14:30;6.10;;;2.27;;
27796;SDS011;15177;50.844;4.412;2023-02-26T09:16:55;7.60;;;1.80;;
27796;SDS011;15177;50.844;4.412;2023-02-26T09:19:21;11.37;;;2.40;;
27796;SDS011;15177;50.844;4.412;2023-02-26T09:21:47;6.00;;;1.50;;
27796;SDS011;15177;50.844;4.412;2023-02-26T09:24:14;5.10;;;1.33;;
27796;SDS011;15177;50.844;4.412;2023-02-26T09:26:39;6.63;;;1.80;;
27796;SDS011;15177;50.844;4.412;2023-02-26T09:29:05;5.53;;;1.70;;
27796;SDS011;15177;50.844;4.412;2023-02-26T09:31:31;4.73;;;1.63;;
27796;SDS011;15177;50.844;4.412;2023-02-26T09:33:57;6.33;;;2.10;;
27796;SDS011;15177;50.844;4.412;2023-02-26T09:36:23;5.97;;;1.90;;
27796;SDS011;15177;50.844;4.412;2023-02-26T09:38:50;4.83;;;1.50;;
27796;SDS011;15177;50.844;4.412;2023-02-26T09:41:18;5.37;;;2.80;;
27796;SDS011;15177;50.844;4.412;2023-02-26T09:46:45;3.90;;;1.57;;
27796;SDS011;15177;50.844;4.412;2023-02-26T09:49:19;4.27;;;1.20;;
27796;SDS011;15177;50.844;4.412;2023-02-26T09:51:51;3.70;;;1.40;;
27796;SDS011;15177;50.844;4.412;2023-02-26T09:54:21;4.07;;;1.53;;
27796;SDS011;15177;50.844;4.412;2023-02-26T09:56:50;6.23;;;1.17;;
27796;SDS011;15177;50.844;4.412;2023-02-26T09:59:17;7.43;;;1.30;;
27796;SDS011;15177;50.844;4.412;2023-02-26T10:01:53;3.07;;;1.00;;
27796;SDS011;15177;50.844;4.412;2023-02-26T10:10:14;6.03;;;1.30;;
27796;SDS011;15177;50.844;4.412;2023-02-26T10:12:57;2.40;;;0.97;;
27796;SDS011;15177;50.844;4.412;2023-02-26T10:15:39;6.00;;;1.27;;
27796;SDS011;15177;50.844;4.412;2023-02-26T10:18:11;4.50;;;0.93;;
27796;SDS011;15177;50.844;4.412;2023-02-26T10:23:41;3.10;;;1.10;;
27796;SDS011;15177;50.844;4.412;2023-02-26T10:26:18;5.23;;;1.50;;
27796;SDS011;15177;50.844;4.412;2023-02-26T10:28:58;5.40;;;1.57;;
27796;SDS011;15177;50.844;4.412;2023-02-26T10:34:39;6.07;;;1.40;;
27796;SDS011;15177;50.844;4.412;2023-02-26T10:40:08;3.90;;;1.47;;
27796;SDS011;15177;50.844;4.412;2023-02-26T10:46:02;5.17;;;1.40;;
27796;SDS011;15177;50.844;4.412;2023-02-26T10:51:14;2.93;;;0.87;;
27796;SDS011;15177;50.844;4.412;2023-02-26T10:53:50;5.67;;;1.17;;
27796;SDS011;15177;50.844;4.412;2023-02-26T10:56:21;2.77;;;0.97;;
27796;SDS011;15177;50.844;4.412;2023-02-26T10:58:55;5.60;;;1.03;;
27796;SDS011;15177;50.844;4.412;2023-02-26T11:01:23;4.37;;;1.00;;
27796;SDS011;15177;50.844;4.412;2023-02-26T11:03:54;2.67;;;1.00;;
27796;SDS011;15177;50.844;4.412;2023-02-26T11:06:31;5.60;;;1.50;;
27796;SDS011;15177;50.844;4.412;2023-02-26T11:09:24;2.90;;;1.37;;
27796;SDS011;15177;50.844;4.412;2023-02-26T11:12:00;3.00;;;1.00;;
27796;SDS011;15177;50.844;4.412;2023-02-26T11:14:36;2.13;;;0.77;;
27796;SDS011;15177;50.844;4.412;2023-02-26T11:17:05;4.10;;;1.33;;
27796;SDS011;15177;50.844;4.412;2023-02-26T11:19:51;1.80;;;0.90;;
27796;SDS011;15177;50.844;4.412;2023-02-26T11:22:24;6.23;;;1.70;;
27796;SDS011;15177;50.844;4.412;2023-02-26T11:24:52;5.57;;;1.40;;
27796;SDS011;15177;50.844;4.412;2023-02-26T11:27:21;3.80;;;1.20;;
27796;SDS011;15177;50.844;4.412;2023-02-26T11:29:59;3.53;;;1.20;;
27796;SDS011;15177;50.844;4.412;2023-02-26T11:32:38;3.63;;;0.90;;
27796;SDS011;15177;50.844;4.412;2023-02-26T11:35:12;4.87;;;1.10;;
27796;SDS011;15177;50.844;4.412;2023-02-26T11:37:39;6.60;;;1.10;;
27796;SDS011;15177;50.844;4.412;2023-02-26T11:40:17;1.43;;;0.83;;
27796;SDS011;15177;50.844;4.412;2023-02-26T11:42:52;3.47;;;0.93;;
27796;SDS011;15177;50.844;4.412;2023-02-26T11:45:22;2.93;;;0.93;;
27796;SDS011;15177;50.844;4.412;2023-02-26T11:47:48;3.80;;;0.93;;
27796;SDS011;15177;50.844;4.412;2023-02-26T11:50:23;2.27;;;1.03;;
27796;SDS011;15177;50.844;4.412;2023-02-26T11:52:56;3.30;;;0.80;;
27796;SDS011;15177;50.844;4.412;2023-02-26T11:55:35;6.53;;;1.20;;
27796;SDS011;15177;50.844;4.412;2023-02-26T11:58:19;2.67;;;2.43;;
27796;SDS011;15177;50.844;4.412;2023-02-26T12:00:47;1.37;;;0.80;;
27796;SDS011;15177;50.844;4.412;2023-02-26T12:03:16;3.13;;;1.17;;
27796;SDS011;15177;50.844;4.412;2023-02-26T12:05:46;4.77;;;1.47;;
27796;SDS011;15177;50.844;4.412;2023-02-26T12:08:47;5.43;;;0.80;;
27796;SDS011;15177;50.844;4.412;2023-02-26T12:13:44;4.10;;;1.20;;
27796;SDS011;15177;50.844;4.412;2023-02-26T12:21:57;1.37;;;0.90;;
27796;SDS011;15177;50.844;4.412;2023-02-26T12:27:01;2.63;;;1.27;;
27796;SDS011;15177;50.844;4.412;2023-02-26T12:41:20;5.13;;;1.70;;
27796;SDS011;15177;50.844;4.412;2023-02-26T12:44:37;8.20;;;4.63;;
27796;SDS011;15177;50.844;4.412;2023-02-26T13:06:58;5.63;;;1.50;;
27796;SDS011;15177;50.844;4.412;2023-02-26T13:10:09;6.43;;;1.97;;
27796;SDS011;15177;50.844;4.412;2023-02-26T13:18:42;6.73;;;2.00;;
27796;SDS011;15177;50.844;4.412;2023-02-26T13:21:29;5.27;;;1.27;;
27796;SDS011;15177;50.844;4.412;2023-02-26T13:26:34;2.97;;;1.10;;
27796;SDS011;15177;50.844;4.412;2023-02-26T13:29:05;3.83;;;1.30;;
27796;SDS011;15177;50.844;4.412;2023-02-26T13:31:41;6.40;;;1.80;;
27796;SDS011;15177;50.844;4.412;2023-02-26T13:34:19;6.00;;;2.80;;
27796;SDS011;15177;50.844;4.412;2023-02-26T13:37:05;9.97;;;2.70;;
27796;SDS011;15177;50.844;4.412;2023-02-26T13:39:56;6.33;;;1.90;;
27796;SDS011;15177;50.844;4.412;2023-02-26T13:42:27;1.63;;;0.80;;
27796;SDS011;15177;50.844;4.412;2023-02-26T13:45:05;7.23;;;1.20;;
27796;SDS011;15177;50.844;4.412;2023-02-26T13:56:07;5.40;;;2.47;;
27796;SDS011;15177;50.844;4.412;2023-02-26T13:58:52;3.80;;;1.47;;
27796;SDS011;15177;50.844;4.412;2023-02-26T14:06:40;2.20;;;1.33;;
27796;SDS011;15177;50.844;4.412;2023-02-26T14:14:33;2.50;;;1.30;;
27796;SDS011;15177;50.844;4.412;2023-02-26T14:19:43;2.33;;;1.20;;
27796;SDS011;15177;50.844;4.412;2023-02-26T14:24:53;2.63;;;1.00;;
27796;SDS011;15177;50.844;4.412;2023-02-26T14:27:45;2.57;;;0.97;;
27796;SDS011;15177;50.844;4.412;2023-02-26T14:30:16;4.23;;;1.27;;
27796;SDS011;15177;50.844;4.412;2023-02-26T14:32:54;1.47;;;0.80;;
27796;SDS011;15177;50.844;4.412;2023-02-26T14:35:39;4.30;;;1.60;;
27796;SDS011;15177;50.844;4.412;2023-02-26T14:38:17;5.37;;;1.03;;
27796;SDS011;15177;50.844;4.412;2023-02-26T14:46:42;4.73;;;1.00;;
27796;SDS011;15177;50.844;4.412;2023-02-26T14:49:14;3.07;;;0.90;;
27796;SDS011;15177;50.844;4.412;2023-02-26T14:51:53;6.50;;;1.17;;
27796;SDS011;15177;50.844;4.412;2023-02-26T14:54:46;2.13;;;1.27;;
27796;SDS011;15177;50.844;4.412;2023-02-26T15:02:55;2.70;;;1.10;;
27796;SDS011;15177;50.844;4.412;2023-02-26T15:05:40;4.37;;;1.40;;
27796;SDS011;15177;50.844;4.412;2023-02-26T15:25:39;3.57;;;1.07;;
27796;SDS011;15177;50.844;4.412;2023-02-26T15:28:12;4.47;;;1.47;;
27796;SDS011;15177;50.844;4.412;2023-02-26T15:31:05;3.23;;;1.73;;
27796;SDS011;15177;50.844;4.412;2023-02-26T15:33:33;5.30;;;1.60;;
27796;SDS011;15177;50.844;4.412;2023-02-26T15:36:00;3.03;;;1.10;;
27796;SDS011;15177;50.844;4.412;2023-02-26T15:41:21;4.27;;;1.50;;
27796;SDS011;15177;50.844;4.412;2023-02-26T15:43:51;4.97;;;1.53;;
27796;SDS011;15177;50.844;4.412;2023-02-26T15:46:21;3.47;;;1.43;;
27796;SDS011;15177;50.844;4.412;2023-02-26T15:48:51;4.43;;;1.30;;
27796;SDS011;15177;50.844;4.412;2023-02-26T15:51:19;6.70;;;1.40;;
27796;SDS011;15177;50.844;4.412;2023-02-26T15:53:46;9.53;;;1.60;;
27796;SDS011;15177;50.844;4.412;2023-02-26T15:56:27;6.00;;;1.60;;
27796;SDS011;15177;50.844;4.412;2023-02-26T15:58:57;5.47;;;1.57;;
27796;SDS011;15177;50.844;4.412;2023-02-26T16:01:30;6.40;;;1.70;;
27796;SDS011;15177;50.844;4.412;2023-02-26T16:03:58;3.63;;;1.27;;
27796;SDS011;15177;50.844;4.412;2023-02-26T16:06:35;4.00;;;1.20;;
27796;SDS011;15177;50.844;4.412;2023-02-26T16:09:06;3.53;;;1.37;;
27796;SDS011;15177;50.844;4.412;2023-02-26T16:11:34;4.30;;;1.13;;
27796;SDS011;15177;50.844;4.412;2023-02-26T16:14:05;4.60;;;1.50;;
27796;SDS011;15177;50.844;4.412;2023-02-26T16:16:45;2.60;;;0.93;;
27796;SDS011;15177;50.844;4.412;2023-02-26T16:19:14;5.50;;;2.30;;
27796;SDS011;15177;50.844;4.412;2023-02-26T16:22:01;5.07;;;1.50;;
27796;SDS011;15177;50.844;4.412;2023-02-26T16:24:33;7.63;;;1.80;;
27796;SDS011;15177;50.844;4.412;2023-02-26T16:27:03;4.03;;;1.47;;
27796;SDS011;15177;50.844;4.412;2023-02-26T16:29:34;5.40;;;1.50;;
27796;SDS011;15177;50.844;4.412;2023-02-26T16:32:02;5.40;;;1.30;;
27796;SDS011;15177;50.844;4.412;2023-02-26T16:37:10;3.03;;;1.50;;
27796;SDS011;15177;50.844;4.412;2023-02-26T16:39:50;2.60;;;1.43;;
27796;SDS011;15177;50.844;4.412;2023-02-26T16:42:32;4.00;;;1.73;;
27796;SDS011;15177;50.844;4.412;2023-02-26T16:45:17;3.33;;;1.73;;
27796;SDS011;15177;50.844;4.412;2023-02-26T16:51:11;3.33;;;1.63;;
27796;SDS011;15177;50.844;4.412;2023-02-26T16:53:44;7.67;;;1.97;;
27796;SDS011;15177;50.844;4.412;2023-02-26T16:56:37;6.87;;;2.33;;
27796;SDS011;15177;50.844;4.412;2023-02-26T17:02:15;4.27;;;1.80;;
27796;SDS011;15177;50.844;4.412;2023-02-26T17:04:45;6.03;;;2.37;;
27796;SDS011;15177;50.844;4.412;2023-02-26T17:07:45;6.20;;;2.07;;
27796;SDS011;15177;50.844;4.412;2023-02-26T17:10:45;3.73;;;2.00;;
27796;SDS011;15177;50.844;4.412;2023-02-26T17:13:27;5.13;;;1.70;;
27796;SDS011;15177;50.844;4.412;2023-02-26T17:15:53;3.67;;;1.30;;
27796;SDS011;15177;50.844;4.412;2023-02-26T17:18:25;4.50;;;2.07;;
27796;SDS011;15177;50.844;4.412;2023-02-26T17:20:51;6.53;;;2.30;;
27796;SDS011;15177;50.844;4.412;2023-02-26T17:23:18;5.97;;;1.97;;
27796;SDS011;15177;50.844;4.412;2023-02-26T17:25:49;4.37;;;1.90;;
27796;SDS011;15177;50.844;4.412;2023-02-26T17:28:20;11.03;;;2.73;;
27796;SDS011;15177;50.844;4.412;2023-02-26T17:30:49;9.50;;;2.87;;
27796;SDS011;15177;50.844;4.412;2023-02-26T17:33:15;5.40;;;2.13;;
27796;SDS011;15177;50.844;4.412;2023-02-26T17:35:41;6.07;;;2.70;;
27796;SDS011;15177;50.844;4.412;2023-02-26T17:38:09;4.90;;;2.10;;
27796;SDS011;15177;50.844;4.412;2023-02-26T17:40:40;6.00;;;2.40;;
27796;SDS011;15177;50.844;4.412;2023-02-26T17:43:07;9.03;;;3.83;;
27796;SDS011;15177;50.844;4.412;2023-02-26T17:45:35;11.60;;;2.90;;
27796;SDS011;15177;50.844;4.412;2023-02-26T17:48:04;7.43;;;3.43;;
27796;SDS011;15177;50.844;4.412;2023-02-26T17:53:15;5.47;;;2.70;;
27796;SDS011;15177;50.844;4.412;2023-02-26T17:55:43;9.33;;;2.50;;
27796;SDS011;15177;50.844;4.412;2023-02-26T17:58:25;4.80;;;2.60;;
27796;SDS011;15177;50.844;4.412;2023-02-26T18:00:56;7.20;;;2.50;;
27796;SDS011;15177;50.844;4.412;2023-02-26T18:03:22;5.67;;;2.43;;
27796;SDS011;15177;50.844;4.412;2023-02-26T18:05:50;6.37;;;2.50;;
27796;SDS011;15177;50.844;4.412;2023-02-26T18:08:21;7.60;;;3.57;;
27796;SDS011;15177;50.844;4.412;2023-02-26T18:10:47;9.60;;;2.87;;
27796;SDS011;15177;50.844;4.412;2023-02-26T18:13:13;9.07;;;3.00;;
27796;SDS011;15177;50.844;4.412;2023-02-26T18:15:39;7.87;;;2.77;;
27796;SDS011;15177;50.844;4.412;2023-02-26T18:18:07;6.73;;;2.33;;
27796;SDS011;15177;50.844;4.412;2023-02-26T18:20:36;4.57;;;2.17;;